sensor_id;sensor_type;location;lat;lon;timestamp;temperature;humidity
33903;DHT22;20194;50.950;5.346;2022-09-09T00:01:32;17.80;9.10
33903;DHT22;20194;50.950;5.346;2022-09-09T00:06:56;17.60;12.30
33903;DHT22;20194;50.950;5.346;2022-09-09T00:09:28;17.60;12.00
33903;DHT22;20194;50.950;5.346;2022-09-09T00:11:59;17.50;15.20
33903;DHT22;20194;50.950;5.346;2022-09-09T00:14:37;17.40;16.40
33903;DHT22;20194;50.950;5.346;2022-09-09T00:17:14;17.40;17.10
33903;DHT22;20194;50.950;5.346;2022-09-09T00:20:35;17.40;17.30
33903;DHT22;20194;50.950;5.346;2022-09-09T00:22:35;17.60;14.20
33903;DHT22;20194;50.950;5.346;2022-09-09T00:25:18;17.70;11.60
33903;DHT22;20194;50.950;5.346;2022-09-09T00:27:48;17.80;9.50
33903;DHT22;20194;50.950;5.346;2022-09-09T00:30:23;17.90;5.50
33903;DHT22;20194;50.950;5.346;2022-09-09T00:32:53;17.90;3.30
33903;DHT22;20194;50.950;5.346;2022-09-09T00:35:30;17.90;6.60
33903;DHT22;20194;50.950;5.346;2022-09-09T00:38:01;18.10;2.10
33903;DHT22;20194;50.950;5.346;2022-09-09T00:40:38;18.20;1.00
33903;DHT22;20194;50.950;5.346;2022-09-09T00:43:28;18.30;1.00
33903;DHT22;20194;50.950;5.346;2022-09-09T00:46:05;18.10;1.00
33903;DHT22;20194;50.950;5.346;2022-09-09T00:51:25;18.40;1.00
33903;DHT22;20194;50.950;5.346;2022-09-09T00:54:24;18.40;1.00
33903;DHT22;20194;50.950;5.346;2022-09-09T00:59:52;18.00;1.00
33903;DHT22;20194;50.950;5.346;2022-09-09T01:05:27;18.00;3.80
33903;DHT22;20194;50.950;5.346;2022-09-09T01:07:54;17.90;4.70
33903;DHT22;20194;50.950;5.346;2022-09-09T01:13:40;18.00;1.00
33903;DHT22;20194;50.950;5.346;2022-09-09T01:16:09;17.90;1.00
33903;DHT22;20194;50.950;5.346;2022-09-09T01:18:43;17.60;5.10
33903;DHT22;20194;50.950;5.346;2022-09-09T01:21:30;17.60;7.70
33903;DHT22;20194;50.950;5.346;2022-09-09T01:26:37;17.70;5.40
33903;DHT22;20194;50.950;5.346;2022-09-09T01:29:11;17.60;7.70
33903;DHT22;20194;50.950;5.346;2022-09-09T01:31:40;17.60;9.40
33903;DHT22;20194;50.950;5.346;2022-09-09T01:34:12;17.50;11.20
33903;DHT22;20194;50.950;5.346;2022-09-09T01:36:46;17.50;11.50
33903;DHT22;20194;50.950;5.346;2022-09-09T01:39:15;17.20;17.90
33903;DHT22;20194;50.950;5.346;2022-09-09T01:41:41;16.90;22.10
33903;DHT22;20194;50.950;5.346;2022-09-09T01:44:07;16.90;25.00
33903;DHT22;20194;50.950;5.346;2022-09-09T01:46:33;17.00;20.90
33903;DHT22;20194;50.950;5.346;2022-09-09T01:49:00;17.00;23.20
33903;DHT22;20194;50.950;5.346;2022-09-09T01:51:27;17.10;21.30
33903;DHT22;20194;50.950;5.346;2022-09-09T01:53:53;17.00;22.50
33903;DHT22;20194;50.950;5.346;2022-09-09T01:56:29;17.10;21.40
33903;DHT22;20194;50.950;5.346;2022-09-09T01:59:10;17.00;22.90
33903;DHT22;20194;50.950;5.346;2022-09-09T02:01:52;17.10;23.20
33903;DHT22;20194;50.950;5.346;2022-09-09T02:06:55;16.80;27.50
33903;DHT22;20194;50.950;5.346;2022-09-09T02:09:24;17.00;27.70
33903;DHT22;20194;50.950;5.346;2022-09-09T02:12:07;16.90;27.00
33903;DHT22;20194;50.950;5.346;2022-09-09T02:14:46;16.90;28.80
33903;DHT22;20194;50.950;5.346;2022-09-09T02:17:16;16.90;28.20
33903;DHT22;20194;50.950;5.346;2022-09-09T02:19:59;16.90;29.90
33903;DHT22;20194;50.950;5.346;2022-09-09T02:22:27;16.90;30.20
33903;DHT22;20194;50.950;5.346;2022-09-09T02:24:56;16.80;29.90
33903;DHT22;20194;50.950;5.346;2022-09-09T02:27:24;16.80;30.60
33903;DHT22;20194;50.950;5.346;2022-09-09T02:29:51;16.90;30.90
33903;DHT22;20194;50.950;5.346;2022-09-09T02:32:20;16.90;29.30
33903;DHT22;20194;50.950;5.346;2022-09-09T02:34:53;16.90;30.70
33903;DHT22;20194;50.950;5.346;2022-09-09T02:37:23;16.80;33.30
33903;DHT22;20194;50.950;5.346;2022-09-09T02:39:54;16.80;31.30
33903;DHT22;20194;50.950;5.346;2022-09-09T02:42:19;16.80;31.30
33903;DHT22;20194;50.950;5.346;2022-09-09T02:44:45;16.90;28.90
33903;DHT22;20194;50.950;5.346;2022-09-09T02:47:26;16.90;31.40
33903;DHT22;20194;50.950;5.346;2022-09-09T02:50:03;16.80;30.80
33903;DHT22;20194;50.950;5.346;2022-09-09T02:52:40;16.70;33.60
33903;DHT22;20194;50.950;5.346;2022-09-09T02:55:16;16.80;31.90
33903;DHT22;20194;50.950;5.346;2022-09-09T02:57:43;16.80;30.50
33903;DHT22;20194;50.950;5.346;2022-09-09T03:00:12;16.80;29.50
33903;DHT22;20194;50.950;5.346;2022-09-09T03:02:38;16.90;28.40
33903;DHT22;20194;50.950;5.346;2022-09-09T03:05:05;16.80;27.90
33903;DHT22;20194;50.950;5.346;2022-09-09T03:07:31;16.80;27.90
33903;DHT22;20194;50.950;5.346;2022-09-09T03:09:57;16.70;30.60
33903;DHT22;20194;50.950;5.346;2022-09-09T03:12:24;16.70;29.00
33903;DHT22;20194;50.950;5.346;2022-09-09T03:14:50;16.60;29.60
33903;DHT22;20194;50.950;5.346;2022-09-09T03:17:16;16.60;30.90
33903;DHT22;20194;50.950;5.346;2022-09-09T03:19:42;16.50;32.10
33903;DHT22;20194;50.950;5.346;2022-09-09T03:22:10;16.60;30.50
33903;DHT22;20194;50.950;5.346;2022-09-09T03:24:36;16.50;31.70
33903;DHT22;20194;50.950;5.346;2022-09-09T03:27:02;16.60;31.60
33903;DHT22;20194;50.950;5.346;2022-09-09T03:29:29;16.60;30.70
33903;DHT22;20194;50.950;5.346;2022-09-09T03:31:54;16.70;29.30
33903;DHT22;20194;50.950;5.346;2022-09-09T03:34:20;16.70;30.00
33903;DHT22;20194;50.950;5.346;2022-09-09T03:36:45;16.70;29.00
33903;DHT22;20194;50.950;5.346;2022-09-09T03:39:14;16.70;28.50
33903;DHT22;20194;50.950;5.346;2022-09-09T03:41:39;16.80;28.90
33903;DHT22;20194;50.950;5.346;2022-09-09T03:44:05;16.90;27.60
33903;DHT22;20194;50.950;5.346;2022-09-09T03:46:30;16.80;26.50
33903;DHT22;20194;50.950;5.346;2022-09-09T03:48:57;16.80;28.00
33903;DHT22;20194;50.950;5.346;2022-09-09T03:51:23;16.80;27.90
33903;DHT22;20194;50.950;5.346;2022-09-09T03:53:49;16.90;27.00
33903;DHT22;20194;50.950;5.346;2022-09-09T03:56:16;16.80;26.80
33903;DHT22;20194;50.950;5.346;2022-09-09T03:58:41;16.80;28.50
33903;DHT22;20194;50.950;5.346;2022-09-09T04:01:10;16.80;27.90
33903;DHT22;20194;50.950;5.346;2022-09-09T04:03:38;16.90;26.10
33903;DHT22;20194;50.950;5.346;2022-09-09T04:06:05;17.00;24.90
33903;DHT22;20194;50.950;5.346;2022-09-09T04:08:33;16.90;23.70
33903;DHT22;20194;50.950;5.346;2022-09-09T04:10:59;16.90;25.00
33903;DHT22;20194;50.950;5.346;2022-09-09T04:13:27;16.90;24.70
33903;DHT22;20194;50.950;5.346;2022-09-09T04:15:55;16.90;25.00
33903;DHT22;20194;50.950;5.346;2022-09-09T04:18:21;16.80;25.30
33903;DHT22;20194;50.950;5.346;2022-09-09T04:20:48;16.80;24.90
33903;DHT22;20194;50.950;5.346;2022-09-09T04:23:14;16.70;25.40
33903;DHT22;20194;50.950;5.346;2022-09-09T04:25:47;16.70;24.90
33903;DHT22;20194;50.950;5.346;2022-09-09T04:28:15;16.70;25.70
33903;DHT22;20194;50.950;5.346;2022-09-09T04:30:42;16.60;28.00
33903;DHT22;20194;50.950;5.346;2022-09-09T04:33:08;16.70;27.50
33903;DHT22;20194;50.950;5.346;2022-09-09T04:35:36;16.80;24.30
33903;DHT22;20194;50.950;5.346;2022-09-09T04:38:02;16.60;26.40
33903;DHT22;20194;50.950;5.346;2022-09-09T04:40:29;16.40;29.20
33903;DHT22;20194;50.950;5.346;2022-09-09T04:42:57;16.40;32.20
33903;DHT22;20194;50.950;5.346;2022-09-09T04:45:23;16.40;29.50
33903;DHT22;20194;50.950;5.346;2022-09-09T04:47:49;16.40;30.80
33903;DHT22;20194;50.950;5.346;2022-09-09T04:50:15;16.60;27.30
33903;DHT22;20194;50.950;5.346;2022-09-09T04:52:42;16.50;27.50
33903;DHT22;20194;50.950;5.346;2022-09-09T04:55:08;16.60;28.10
33903;DHT22;20194;50.950;5.346;2022-09-09T04:57:35;16.50;26.90
33903;DHT22;20194;50.950;5.346;2022-09-09T05:00:00;16.50;27.50
33903;DHT22;20194;50.950;5.346;2022-09-09T05:02:27;16.40;28.10
33903;DHT22;20194;50.950;5.346;2022-09-09T05:04:52;16.40;27.90
33903;DHT22;20194;50.950;5.346;2022-09-09T05:07:18;16.40;28.90
33903;DHT22;20194;50.950;5.346;2022-09-09T05:09:44;16.40;28.70
33903;DHT22;20194;50.950;5.346;2022-09-09T05:12:10;16.30;28.20
33903;DHT22;20194;50.950;5.346;2022-09-09T05:14:36;16.30;29.60
33903;DHT22;20194;50.950;5.346;2022-09-09T05:17:06;16.30;27.90
33903;DHT22;20194;50.950;5.346;2022-09-09T05:19:31;16.40;28.00
33903;DHT22;20194;50.950;5.346;2022-09-09T05:21:57;16.40;28.40
33903;DHT22;20194;50.950;5.346;2022-09-09T05:24:22;16.40;27.20
33903;DHT22;20194;50.950;5.346;2022-09-09T05:26:48;16.40;27.20
33903;DHT22;20194;50.950;5.346;2022-09-09T05:29:15;16.40;27.20
33903;DHT22;20194;50.950;5.346;2022-09-09T05:31:45;16.30;28.00
33903;DHT22;20194;50.950;5.346;2022-09-09T05:34:12;16.40;27.80
33903;DHT22;20194;50.950;5.346;2022-09-09T05:36:38;16.40;27.60
33903;DHT22;20194;50.950;5.346;2022-09-09T05:39:04;16.40;26.40
33903;DHT22;20194;50.950;5.346;2022-09-09T05:41:30;16.40;27.80
33903;DHT22;20194;50.950;5.346;2022-09-09T05:43:57;16.40;27.30
33903;DHT22;20194;50.950;5.346;2022-09-09T05:46:24;16.50;25.30
33903;DHT22;20194;50.950;5.346;2022-09-09T05:48:52;16.50;25.30
33903;DHT22;20194;50.950;5.346;2022-09-09T05:51:21;16.50;22.70
33903;DHT22;20194;50.950;5.346;2022-09-09T05:53:48;16.50;22.90
33903;DHT22;20194;50.950;5.346;2022-09-09T05:56:21;16.50;23.20
33903;DHT22;20194;50.950;5.346;2022-09-09T05:58:50;16.50;21.30
33903;DHT22;20194;50.950;5.346;2022-09-09T06:01:21;16.50;19.20
33903;DHT22;20194;50.950;5.346;2022-09-09T06:03:48;16.60;19.80
33903;DHT22;20194;50.950;5.346;2022-09-09T06:06:16;16.60;18.60
33903;DHT22;20194;50.950;5.346;2022-09-09T06:08:44;16.60;18.50
33903;DHT22;20194;50.950;5.346;2022-09-09T06:11:14;16.60;19.20
33903;DHT22;20194;50.950;5.346;2022-09-09T06:13:40;16.70;19.00
33903;DHT22;20194;50.950;5.346;2022-09-09T06:16:09;16.70;17.80
33903;DHT22;20194;50.950;5.346;2022-09-09T06:18:34;16.70;18.20
33903;DHT22;20194;50.950;5.346;2022-09-09T06:21:02;16.70;18.50
33903;DHT22;20194;50.950;5.346;2022-09-09T06:23:32;16.80;18.50
33903;DHT22;20194;50.950;5.346;2022-09-09T06:28:27;16.90;16.60
33903;DHT22;20194;50.950;5.346;2022-09-09T06:31:00;16.90;15.50
33903;DHT22;20194;50.950;5.346;2022-09-09T06:33:26;17.00;15.50
33903;DHT22;20194;50.950;5.346;2022-09-09T06:35:54;17.00;15.40
33903;DHT22;20194;50.950;5.346;2022-09-09T06:38:20;17.00;14.70
33903;DHT22;20194;50.950;5.346;2022-09-09T06:40:52;17.20;13.60
33903;DHT22;20194;50.950;5.346;2022-09-09T06:43:20;17.30;11.40
33903;DHT22;20194;50.950;5.346;2022-09-09T06:45:56;17.40;6.40
33903;DHT22;20194;50.950;5.346;2022-09-09T06:48:23;17.60;5.20
33903;DHT22;20194;50.950;5.346;2022-09-09T06:50:59;17.80;4.20
33903;DHT22;20194;50.950;5.346;2022-09-09T06:53:25;18.00;1.00
33903;DHT22;20194;50.950;5.346;2022-09-09T06:55:52;18.20;1.00
33903;DHT22;20194;50.950;5.346;2022-09-09T06:58:18;18.10;1.00
33903;DHT22;20194;50.950;5.346;2022-09-09T07:00:44;18.10;1.00
33903;DHT22;20194;50.950;5.346;2022-09-09T07:03:10;18.00;1.00
33903;DHT22;20194;50.950;5.346;2022-09-09T07:05:36;17.90;1.00
33903;DHT22;20194;50.950;5.346;2022-09-09T07:08:02;17.80;1.00
33903;DHT22;20194;50.950;5.346;2022-09-09T07:10:28;17.70;1.00
33903;DHT22;20194;50.950;5.346;2022-09-09T07:12:54;17.60;4.00
33903;DHT22;20194;50.950;5.346;2022-09-09T07:15:21;17.50;2.60
33903;DHT22;20194;50.950;5.346;2022-09-09T07:17:48;17.40;3.20
33903;DHT22;20194;50.950;5.346;2022-09-09T07:20:14;17.40;5.10
33903;DHT22;20194;50.950;5.346;2022-09-09T07:22:41;17.40;6.00
33903;DHT22;20194;50.950;5.346;2022-09-09T07:25:07;17.40;4.20
33903;DHT22;20194;50.950;5.346;2022-09-09T07:27:33;17.50;6.10
33903;DHT22;20194;50.950;5.346;2022-09-09T07:29:59;17.50;1.00
33903;DHT22;20194;50.950;5.346;2022-09-09T07:32:25;17.60;1.00
33903;DHT22;20194;50.950;5.346;2022-09-09T07:34:55;17.80;1.00
33903;DHT22;20194;50.950;5.346;2022-09-09T07:37:23;17.90;1.00
33903;DHT22;20194;50.950;5.346;2022-09-09T07:39:49;17.90;1.00
33903;DHT22;20194;50.950;5.346;2022-09-09T07:42:16;17.90;1.00
33903;DHT22;20194;50.950;5.346;2022-09-09T07:44:42;18.20;1.00
33903;DHT22;20194;50.950;5.346;2022-09-09T07:47:07;18.30;1.00
33903;DHT22;20194;50.950;5.346;2022-09-09T07:49:33;18.20;1.00
33903;DHT22;20194;50.950;5.346;2022-09-09T07:51:59;18.30;1.00
33903;DHT22;20194;50.950;5.346;2022-09-09T07:54:25;18.40;1.00
33903;DHT22;20194;50.950;5.346;2022-09-09T07:56:52;18.40;1.00
33903;DHT22;20194;50.950;5.346;2022-09-09T07:59:18;18.40;1.00
33903;DHT22;20194;50.950;5.346;2022-09-09T08:01:46;18.30;1.00
33903;DHT22;20194;50.950;5.346;2022-09-09T08:04:14;18.20;1.00
33903;DHT22;20194;50.950;5.346;2022-09-09T08:06:42;18.10;1.00
33903;DHT22;20194;50.950;5.346;2022-09-09T08:09:09;18.20;1.00
33903;DHT22;20194;50.950;5.346;2022-09-09T08:11:35;18.10;1.00
33903;DHT22;20194;50.950;5.346;2022-09-09T08:14:03;18.00;1.00
33903;DHT22;20194;50.950;5.346;2022-09-09T08:16:33;18.00;1.00
33903;DHT22;20194;50.950;5.346;2022-09-09T08:19:03;18.00;1.00
33903;DHT22;20194;50.950;5.346;2022-09-09T08:21:30;18.00;1.00
33903;DHT22;20194;50.950;5.346;2022-09-09T08:23:58;18.00;1.00
33903;DHT22;20194;50.950;5.346;2022-09-09T08:26:28;17.90;1.00
33903;DHT22;20194;50.950;5.346;2022-09-09T08:28:55;17.80;1.00
33903;DHT22;20194;50.950;5.346;2022-09-09T08:31:26;17.80;1.00
33903;DHT22;20194;50.950;5.346;2022-09-09T08:33:53;17.70;1.00
33903;DHT22;20194;50.950;5.346;2022-09-09T08:36:22;17.70;1.00
33903;DHT22;20194;50.950;5.346;2022-09-09T08:38:55;17.70;1.00
33903;DHT22;20194;50.950;5.346;2022-09-09T08:50:00;17.80;1.00
33903;DHT22;20194;50.950;5.346;2022-09-09T08:52:39;17.80;1.00
33903;DHT22;20194;50.950;5.346;2022-09-09T09:06:42;17.50;1.50
33903;DHT22;20194;50.950;5.346;2022-09-09T09:12:18;17.60;6.50
33903;DHT22;20194;50.950;5.346;2022-09-09T09:14:47;17.70;1.00
33903;DHT22;20194;50.950;5.346;2022-09-09T09:17:18;17.70;1.00
33903;DHT22;20194;50.950;5.346;2022-09-09T09:19:46;17.70;1.00
33903;DHT22;20194;50.950;5.346;2022-09-09T09:22:52;17.70;1.00
33903;DHT22;20194;50.950;5.346;2022-09-09T09:25:29;17.70;1.00
33903;DHT22;20194;50.950;5.346;2022-09-09T09:28:15;17.70;1.00
33903;DHT22;20194;50.950;5.346;2022-09-09T09:30:51;17.80;1.00
33903;DHT22;20194;50.950;5.346;2022-09-09T09:33:36;17.80;1.00
33903;DHT22;20194;50.950;5.346;2022-09-09T09:36:05;17.90;1.00
33903;DHT22;20194;50.950;5.346;2022-09-09T09:38:35;17.90;1.00
33903;DHT22;20194;50.950;5.346;2022-09-09T09:41:01;17.90;1.00
33903;DHT22;20194;50.950;5.346;2022-09-09T09:43:32;17.90;1.00
33903;DHT22;20194;50.950;5.346;2022-09-09T09:45:58;17.90;1.00
33903;DHT22;20194;50.950;5.346;2022-09-09T09:48:24;18.10;1.00
33903;DHT22;20194;50.950;5.346;2022-09-09T09:51:14;18.10;1.00
33903;DHT22;20194;50.950;5.346;2022-09-09T09:53:42;18.20;1.00
33903;DHT22;20194;50.950;5.346;2022-09-09T09:56:11;18.20;1.00
33903;DHT22;20194;50.950;5.346;2022-09-09T10:01:39;18.40;1.00
33903;DHT22;20194;50.950;5.346;2022-09-09T10:04:18;18.40;1.00
33903;DHT22;20194;50.950;5.346;2022-09-09T10:06:46;18.30;1.00
33903;DHT22;20194;50.950;5.346;2022-09-09T10:09:29;18.10;8.40
33903;DHT22;20194;50.950;5.346;2022-09-09T10:15:12;17.70;16.70
33903;DHT22;20194;50.950;5.346;2022-09-09T10:18:14;17.70;16.20
33903;DHT22;20194;50.950;5.346;2022-09-09T10:21:20;17.60;16.60
33903;DHT22;20194;50.950;5.346;2022-09-09T10:29:23;17.40;25.20
33903;DHT22;20194;50.950;5.346;2022-09-09T10:35:02;17.40;31.40
33903;DHT22;20194;50.950;5.346;2022-09-09T10:44:01;17.00;39.40
33903;DHT22;20194;50.950;5.346;2022-09-09T10:46:45;16.90;42.40
33903;DHT22;20194;50.950;5.346;2022-09-09T10:55:13;16.90;46.00
33903;DHT22;20194;50.950;5.346;2022-09-09T11:02:41;17.10;46.70
33903;DHT22;20194;50.950;5.346;2022-09-09T11:05:19;17.20;46.30
33903;DHT22;20194;50.950;5.346;2022-09-09T11:08:10;17.30;44.20
33903;DHT22;20194;50.950;5.346;2022-09-09T11:13:09;17.60;44.70
33903;DHT22;20194;50.950;5.346;2022-09-09T11:15:40;17.70;43.90
33903;DHT22;20194;50.950;5.346;2022-09-09T11:18:13;17.60;39.00
33903;DHT22;20194;50.950;5.346;2022-09-09T11:20:41;17.70;44.20
33903;DHT22;20194;50.950;5.346;2022-09-09T11:23:17;17.70;44.00
33903;DHT22;20194;50.950;5.346;2022-09-09T11:26:03;17.80;44.30
33903;DHT22;20194;50.950;5.346;2022-09-09T11:28:40;17.80;35.30
33903;DHT22;20194;50.950;5.346;2022-09-09T11:37:06;18.20;40.20
33903;DHT22;20194;50.950;5.346;2022-09-09T11:39:49;18.40;40.70
33903;DHT22;20194;50.950;5.346;2022-09-09T11:42:22;18.70;38.80
33903;DHT22;20194;50.950;5.346;2022-09-09T11:44:49;18.60;26.60
33903;DHT22;20194;50.950;5.346;2022-09-09T11:50:06;18.40;20.60
33903;DHT22;20194;50.950;5.346;2022-09-09T11:52:43;18.40;25.20
33903;DHT22;20194;50.950;5.346;2022-09-09T11:57:39;18.40;20.80
33903;DHT22;20194;50.950;5.346;2022-09-09T12:00:05;18.40;18.70
33903;DHT22;20194;50.950;5.346;2022-09-09T12:02:31;18.40;20.80
33903;DHT22;20194;50.950;5.346;2022-09-09T12:05:08;18.40;20.30
33903;DHT22;20194;50.950;5.346;2022-09-09T12:07:39;18.40;21.70
33903;DHT22;20194;50.950;5.346;2022-09-09T12:10:53;18.30;17.30
33903;DHT22;20194;50.950;5.346;2022-09-09T12:13:21;18.30;16.50
33903;DHT22;20194;50.950;5.346;2022-09-09T12:15:52;18.20;17.00
33903;DHT22;20194;50.950;5.346;2022-09-09T12:18:39;18.20;21.00
33903;DHT22;20194;50.950;5.346;2022-09-09T12:21:40;18.00;21.40
33903;DHT22;20194;50.950;5.346;2022-09-09T12:24:14;17.90;26.50
33903;DHT22;20194;50.950;5.346;2022-09-09T12:26:47;17.80;26.10
33903;DHT22;20194;50.950;5.346;2022-09-09T12:32:02;17.70;24.90
33903;DHT22;20194;50.950;5.346;2022-09-09T12:34:40;17.70;27.50
33903;DHT22;20194;50.950;5.346;2022-09-09T12:37:29;17.80;30.70
33903;DHT22;20194;50.950;5.346;2022-09-09T12:40:00;17.90;29.70
33903;DHT22;20194;50.950;5.346;2022-09-09T12:42:27;18.00;24.30
33903;DHT22;20194;50.950;5.346;2022-09-09T12:45:03;18.20;24.90
33903;DHT22;20194;50.950;5.346;2022-09-09T12:47:45;18.30;28.70
33903;DHT22;20194;50.950;5.346;2022-09-09T12:50:33;18.40;24.80
33903;DHT22;20194;50.950;5.346;2022-09-09T12:53:07;18.60;23.70
33903;DHT22;20194;50.950;5.346;2022-09-09T12:55:36;18.90;27.80
33903;DHT22;20194;50.950;5.346;2022-09-09T12:58:04;18.80;20.40
33903;DHT22;20194;50.950;5.346;2022-09-09T13:00:32;18.90;21.00
33903;DHT22;20194;50.950;5.346;2022-09-09T13:03:14;19.10;22.90
33903;DHT22;20194;50.950;5.346;2022-09-09T13:05:41;19.20;13.00
33903;DHT22;20194;50.950;5.346;2022-09-09T13:08:12;19.10;14.20
33903;DHT22;20194;50.950;5.346;2022-09-09T13:11:00;19.20;15.60
33903;DHT22;20194;50.950;5.346;2022-09-09T13:13:30;19.50;13.70
33903;DHT22;20194;50.950;5.346;2022-09-09T13:15:59;19.70;10.00
33903;DHT22;20194;50.950;5.346;2022-09-09T13:18:30;19.80;3.00
33903;DHT22;20194;50.950;5.346;2022-09-09T13:20:57;19.60;1.00
33903;DHT22;20194;50.950;5.346;2022-09-09T13:23:27;19.50;1.00
33903;DHT22;20194;50.950;5.346;2022-09-09T13:25:56;19.60;1.30
33903;DHT22;20194;50.950;5.346;2022-09-09T13:28:25;19.60;1.00
33903;DHT22;20194;50.950;5.346;2022-09-09T13:31:00;19.50;1.00
33903;DHT22;20194;50.950;5.346;2022-09-09T13:33:34;19.50;1.00
33903;DHT22;20194;50.950;5.346;2022-09-09T13:36:09;19.50;1.00
33903;DHT22;20194;50.950;5.346;2022-09-09T13:38:38;19.60;1.00
33903;DHT22;20194;50.950;5.346;2022-09-09T13:43:36;19.50;1.00
33903;DHT22;20194;50.950;5.346;2022-09-09T13:46:05;19.60;1.00
33903;DHT22;20194;50.950;5.346;2022-09-09T13:48:54;19.70;1.00
33903;DHT22;20194;50.950;5.346;2022-09-09T13:51:34;19.70;1.00
33903;DHT22;20194;50.950;5.346;2022-09-09T13:54:00;19.70;1.00
33903;DHT22;20194;50.950;5.346;2022-09-09T13:56:27;19.70;1.00
33903;DHT22;20194;50.950;5.346;2022-09-09T13:58:52;19.80;1.00
33903;DHT22;20194;50.950;5.346;2022-09-09T14:01:18;19.80;1.00
33903;DHT22;20194;50.950;5.346;2022-09-09T14:03:44;19.90;1.00
33903;DHT22;20194;50.950;5.346;2022-09-09T14:06:10;19.90;1.00
33903;DHT22;20194;50.950;5.346;2022-09-09T14:08:37;20.00;1.00
33903;DHT22;20194;50.950;5.346;2022-09-09T14:11:04;20.10;1.00
33903;DHT22;20194;50.950;5.346;2022-09-09T14:13:29;20.10;1.00
33903;DHT22;20194;50.950;5.346;2022-09-09T14:15:55;19.90;1.00
33903;DHT22;20194;50.950;5.346;2022-09-09T14:18:21;19.90;1.00
33903;DHT22;20194;50.950;5.346;2022-09-09T14:20:48;19.90;1.00
33903;DHT22;20194;50.950;5.346;2022-09-09T14:23:16;19.90;1.00
33903;DHT22;20194;50.950;5.346;2022-09-09T14:25:45;19.90;1.00
33903;DHT22;20194;50.950;5.346;2022-09-09T14:28:13;20.00;1.00
33903;DHT22;20194;50.950;5.346;2022-09-09T14:30:40;20.10;1.00
33903;DHT22;20194;50.950;5.346;2022-09-09T14:33:07;20.00;1.00
33903;DHT22;20194;50.950;5.346;2022-09-09T14:35:34;20.00;1.00
33903;DHT22;20194;50.950;5.346;2022-09-09T14:38:00;19.90;1.00
33903;DHT22;20194;50.950;5.346;2022-09-09T14:40:26;20.10;1.00
33903;DHT22;20194;50.950;5.346;2022-09-09T14:42:53;20.20;1.00
33903;DHT22;20194;50.950;5.346;2022-09-09T14:45:18;20.30;1.00
33903;DHT22;20194;50.950;5.346;2022-09-09T14:47:47;20.30;1.00
33903;DHT22;20194;50.950;5.346;2022-09-09T14:50:14;20.40;1.00
33903;DHT22;20194;50.950;5.346;2022-09-09T14:52:40;20.60;1.00
33903;DHT22;20194;50.950;5.346;2022-09-09T14:55:06;20.60;1.00
33903;DHT22;20194;50.950;5.346;2022-09-09T14:57:32;20.80;1.00
33903;DHT22;20194;50.950;5.346;2022-09-09T15:00:00;20.90;1.00
33903;DHT22;20194;50.950;5.346;2022-09-09T15:02:26;20.90;1.00
33903;DHT22;20194;50.950;5.346;2022-09-09T15:04:51;20.80;1.00
33903;DHT22;20194;50.950;5.346;2022-09-09T15:07:18;20.80;1.00
33903;DHT22;20194;50.950;5.346;2022-09-09T15:09:45;20.70;1.00
33903;DHT22;20194;50.950;5.346;2022-09-09T15:12:12;20.60;1.00
33903;DHT22;20194;50.950;5.346;2022-09-09T15:14:39;20.50;1.00
33903;DHT22;20194;50.950;5.346;2022-09-09T15:17:05;20.50;1.00
33903;DHT22;20194;50.950;5.346;2022-09-09T15:19:31;20.50;1.00
33903;DHT22;20194;50.950;5.346;2022-09-09T15:21:57;20.40;1.00
33903;DHT22;20194;50.950;5.346;2022-09-09T15:24:25;20.40;1.00
33903;DHT22;20194;50.950;5.346;2022-09-09T15:26:52;20.30;1.00
33903;DHT22;20194;50.950;5.346;2022-09-09T15:29:19;20.30;1.00
33903;DHT22;20194;50.950;5.346;2022-09-09T15:31:45;20.20;1.00
33903;DHT22;20194;50.950;5.346;2022-09-09T15:34:11;20.20;1.00
33903;DHT22;20194;50.950;5.346;2022-09-09T15:36:41;20.20;1.00
33903;DHT22;20194;50.950;5.346;2022-09-09T15:39:12;20.20;1.00
33903;DHT22;20194;50.950;5.346;2022-09-09T15:41:38;20.20;1.00
33903;DHT22;20194;50.950;5.346;2022-09-09T15:44:05;20.30;1.00
33903;DHT22;20194;50.950;5.346;2022-09-09T15:46:37;20.30;1.00
33903;DHT22;20194;50.950;5.346;2022-09-09T15:49:08;20.30;1.00
33903;DHT22;20194;50.950;5.346;2022-09-09T15:51:35;20.40;1.00
33903;DHT22;20194;50.950;5.346;2022-09-09T15:54:00;20.50;1.00
33903;DHT22;20194;50.950;5.346;2022-09-09T15:56:28;20.40;1.00
33903;DHT22;20194;50.950;5.346;2022-09-09T15:58:56;20.40;1.00
33903;DHT22;20194;50.950;5.346;2022-09-09T16:01:23;20.40;1.00
33903;DHT22;20194;50.950;5.346;2022-09-09T16:03:49;20.40;1.00
33903;DHT22;20194;50.950;5.346;2022-09-09T16:06:22;20.50;1.00
33903;DHT22;20194;50.950;5.346;2022-09-09T16:08:50;20.50;1.00
33903;DHT22;20194;50.950;5.346;2022-09-09T16:11:19;20.30;1.00
33903;DHT22;20194;50.950;5.346;2022-09-09T16:13:46;20.30;1.00
33903;DHT22;20194;50.950;5.346;2022-09-09T16:16:14;20.40;1.00
33903;DHT22;20194;50.950;5.346;2022-09-09T16:18:48;20.30;1.00
33903;DHT22;20194;50.950;5.346;2022-09-09T16:21:17;20.20;1.00
33903;DHT22;20194;50.950;5.346;2022-09-09T16:23:43;20.10;1.00
33903;DHT22;20194;50.950;5.346;2022-09-09T16:26:14;20.20;1.00
33903;DHT22;20194;50.950;5.346;2022-09-09T16:28:40;20.10;1.00
33903;DHT22;20194;50.950;5.346;2022-09-09T16:31:11;20.10;1.00
33903;DHT22;20194;50.950;5.346;2022-09-09T16:33:39;20.00;1.00
33903;DHT22;20194;50.950;5.346;2022-09-09T16:36:14;20.00;1.00
33903;DHT22;20194;50.950;5.346;2022-09-09T16:38:41;19.80;1.00
33903;DHT22;20194;50.950;5.346;2022-09-09T16:41:09;19.70;1.00
33903;DHT22;20194;50.950;5.346;2022-09-09T16:43:36;19.60;1.00
33903;DHT22;20194;50.950;5.346;2022-09-09T16:46:16;19.50;1.00
33903;DHT22;20194;50.950;5.346;2022-09-09T16:48:45;19.40;1.00
33903;DHT22;20194;50.950;5.346;2022-09-09T16:51:20;19.40;1.00
33903;DHT22;20194;50.950;5.346;2022-09-09T16:53:46;19.40;1.00
33903;DHT22;20194;50.950;5.346;2022-09-09T16:56:14;19.40;1.00
33903;DHT22;20194;50.950;5.346;2022-09-09T16:58:41;19.50;1.00
33903;DHT22;20194;50.950;5.346;2022-09-09T17:01:08;19.50;1.00
33903;DHT22;20194;50.950;5.346;2022-09-09T17:03:35;19.40;1.00
33903;DHT22;20194;50.950;5.346;2022-09-09T17:06:03;19.30;1.00
33903;DHT22;20194;50.950;5.346;2022-09-09T17:08:33;19.20;1.00
33903;DHT22;20194;50.950;5.346;2022-09-09T17:10:59;19.30;1.00
33903;DHT22;20194;50.950;5.346;2022-09-09T17:13:25;19.20;1.00
33903;DHT22;20194;50.950;5.346;2022-09-09T17:15:50;19.20;1.00
33903;DHT22;20194;50.950;5.346;2022-09-09T17:18:16;19.20;1.00
33903;DHT22;20194;50.950;5.346;2022-09-09T17:20:42;19.20;1.00
33903;DHT22;20194;50.950;5.346;2022-09-09T17:23:10;19.10;1.00
33903;DHT22;20194;50.950;5.346;2022-09-09T17:25:36;19.20;1.00
33903;DHT22;20194;50.950;5.346;2022-09-09T17:28:03;19.10;1.00
33903;DHT22;20194;50.950;5.346;2022-09-09T17:30:33;19.10;1.00
33903;DHT22;20194;50.950;5.346;2022-09-09T17:32:59;19.10;1.00